Time;durP1;ratioP1;P1;durP2;ratioP2;P2;SDS_P1;SDS_P2;PMS_P1;PMS_P2;Temp;Humidity;BMP_temperature;BMP_pressure;BME280_temperature;BME280_humidity;BME280_pressure;Samples;Min_cycle;Max_cycle;Signal;HPM_P1;HPM_P2
2024/01/09 00:00:02;;;;;;;155.37;22.10;;;;;;;;;;5048870;28;20215;-50
2024/01/09 00:02:27;;;;;;;167.60;24.13;;;;;;;;;;5049015;28;20368;-50
2024/01/09 00:04:53;;;;;;;161.20;23.27;;;;;;;;;;5049148;28;20222;-50
2024/01/09 00:07:19;;;;;;;172.27;24.40;;;;;;;;;;5048625;28;20632;-50
2024/01/09 00:09:45;;;;;;;161.93;23.57;;;;;;;;;;5048576;28;20238;-50
2024/01/09 00:12:11;;;;;;;177.47;25.50;;;;;;;;;;5048648;28;20219;-50
2024/01/09 00:14:37;;;;;;;157.67;22.20;;;;;;;;;;5048666;28;20222;-49
2024/01/09 00:17:03;;;;;;;172.13;24.70;;;;;;;;;;5048575;28;20664;-48
2024/01/09 00:19:29;;;;;;;172.27;24.10;;;;;;;;;;5049288;28;20168;-49
2024/01/09 00:21:56;;;;;;;163.00;22.43;;;;;;;;;;5048306;28;20207;-49
2024/01/09 00:24:22;;;;;;;170.33;24.17;;;;;;;;;;5046805;28;20227;-49
2024/01/09 00:26:48;;;;;;;153.53;21.37;;;;;;;;;;5047943;28;20225;-49
2024/01/09 00:29:14;;;;;;;153.60;21.67;;;;;;;;;;5047972;28;20176;-50
2024/01/09 00:31:40;;;;;;;149.77;20.63;;;;;;;;;;5048701;28;20179;-49
2024/01/09 00:34:08;;;;;;;152.17;21.00;;;;;;;;;;5048149;28;20308;-49
2024/01/09 00:36:34;;;;;;;159.33;21.20;;;;;;;;;;5048315;28;20641;-49
2024/01/09 00:39:00;;;;;;;177.17;23.60;;;;;;;;;;5048000;28;20229;-49
2024/01/09 00:41:26;;;;;;;181.70;23.87;;;;;;;;;;5047848;28;20581;-49
2024/01/09 00:43:51;;;;;;;148.30;19.80;;;-8.40;99.90;;;;;;5048319;28;20525;-49
2024/01/09 00:46:17;;;;;;;151.87;20.67;;;;;;;;;;5047936;28;20216;-49
2024/01/09 00:48:43;;;;;;;188.17;24.63;;;;;;;;;;5047965;28;20222;-49
2024/01/09 00:51:09;;;;;;;149.63;20.17;;;;;;;;;;5047835;28;20675;-48
2024/01/09 00:53:35;;;;;;;161.63;21.53;;;;;;;;;;5048099;28;20602;-49
2024/01/09 00:56:01;;;;;;;145.13;19.80;;;-8.60;99.90;;;;;;5047504;28;20243;-49
2024/01/09 00:58:27;;;;;;;164.47;22.17;;;;;;;;;;5048137;28;20199;-49
2024/01/09 01:00:52;;;;;;;169.43;22.63;;;-8.70;99.90;;;;;;5047449;28;20231;-49
2024/01/09 01:03:18;;;;;;;154.17;20.67;;;;;;;;;;5047770;28;20219;-49
2024/01/09 01:05:45;;;;;;;143.97;19.33;;;;;;;;;;5047513;28;20302;-49
2024/01/09 01:08:11;;;;;;;142.03;19.23;;;;;;;;;;5047423;28;20190;-50
2024/01/09 01:10:37;;;;;;;154.33;20.47;;;;;;;;;;5048052;28;20176;-49
2024/01/09 01:13:04;;;;;;;167.40;22.33;;;;;;;;;;5047720;28;20298;-49
2024/01/09 01:15:30;;;;;;;162.87;21.83;;;;;;;;;;5047221;28;20752;-49
2024/01/09 01:17:55;;;;;;;152.37;20.53;;;;;;;;;;5047312;28;20242;-49
2024/01/09 01:20:21;;;;;;;162.63;21.60;;;;;;;;;;5047248;28;20264;-49
2024/01/09 01:22:47;;;;;;;168.60;22.67;;;;;;;;;;5047868;28;20184;-49
2024/01/09 01:25:13;;;;;;;152.37;20.33;;;;;;;;;;5046996;28;20313;-48
2024/01/09 01:27:39;;;;;;;154.47;20.37;;;;;;;;;;5047034;28;20234;-48
2024/01/09 01:30:06;;;;;;;151.47;20.50;;;;;;;;;;5047130;28;20230;-49
2024/01/09 01:32:32;;;;;;;155.57;21.10;;;;;;;;;;5045576;28;20298;-49
2024/01/09 01:34:58;;;;;;;164.43;21.83;;;;;;;;;;5047154;28;20811;-50
2024/01/09 01:37:24;;;;;;;174.67;22.93;;;;;;;;;;5047561;28;20178;-49
2024/01/09 01:39:50;;;;;;;136.27;18.03;;;;;;;;;;5046849;28;20226;-49
2024/01/09 01:42:16;;;;;;;150.37;19.87;;;;;;;;;;5047214;28;20662;-50
2024/01/09 01:44:42;;;;;;;158.67;21.03;;;;;;;;;;5046675;28;20235;-50
2024/01/09 01:47:10;;;;;;;147.57;20.07;;;;;;;;;;5046813;28;20171;-50
2024/01/09 01:49:36;;;;;;;179.67;24.07;;;;;;;;;;5047513;28;20237;-49
2024/01/09 01:52:02;;;;;;;167.57;22.23;;;;;;;;;;5046631;28;20302;-50
2024/01/09 01:54:29;;;;;;;159.57;21.07;;;;;;;;;;5046591;28;20215;-50
2024/01/09 01:56:55;;;;;;;142.20;19.00;;;;;;;;;;5046903;28;20246;-50
2024/01/09 01:59:22;;;;;;;159.90;21.27;;;;;;;;;;5046686;28;20288;-49
2024/01/09 02:01:48;;;;;;;164.00;22.00;;;;;;;;;;5047204;28;20194;-48
2024/01/09 03:17:32;;;;;;;165.70;21.57;;;;;;;;;;5049434;28;20596;-50
2024/01/09 03:19:58;;;;;;;147.90;20.80;;;;;;;;;;5049871;28;20171;-49
2024/01/09 03:22:24;;;;;;;159.77;22.20;;;;;;;;;;5050102;28;20168;-49
2024/01/09 03:24:50;;;;;;;166.17;23.60;;;;;;;;;;5049358;28;20267;-50
2024/01/09 03:30:20;;;;;;;149.00;21.57;;;;;;;;;;5051147;28;20256;-50
2024/01/09 03:32:46;;;;;;;157.97;21.93;;;;;;;;;;5049445;28;20613;-50
2024/01/09 03:35:12;;;;;;;158.63;22.37;;;;;;;;;;5049310;28;20200;-51
2024/01/09 03:37:38;;;;;;;138.47;19.07;;;;;;;;;;5050623;28;20183;-50
2024/01/09 03:40:04;;;;;;;164.23;23.77;;;;;;;;;;5049309;28;20227;-49
2024/01/09 03:42:30;;;;;;;153.90;22.03;;;;;;;;;;5049120;28;20223;-49
2024/01/09 03:44:56;;;;;;;197.40;28.13;;;;;;;;;;5048848;28;20617;-53
2024/01/09 03:47:22;;;;;;;227.70;31.77;;;;;;;;;;5040989;28;20277;-53
2024/01/09 03:49:48;;;;;;;191.40;27.47;;;;;;;;;;5041776;28;20681;-53
2024/01/09 03:52:14;;;;;;;255.70;37.43;;;;;;;;;;5044406;28;20222;-53
2024/01/09 03:54:40;;;;;;;211.90;30.33;;;;;;;;;;5040118;28;20281;-52
2024/01/09 03:57:06;;;;;;;220.37;31.00;;;;;;;;;;5039021;28;22746;-53
2024/01/09 03:59:32;;;;;;;222.90;31.13;;;;;;;;;;5042830;28;20228;-52
2024/01/09 04:01:58;;;;;;;238.90;34.30;;;;;;;;;;5042236;28;20218;-53
2024/01/09 04:04:24;;;;;;;210.63;30.17;;;;;;;;;;5038946;28;20313;-53
2024/01/09 04:06:50;;;;;;;213.07;31.63;;;;;;;;;;5041583;28;20678;-53
2024/01/09 04:09:16;;;;;;;215.20;29.73;;;;;;;;;;5040091;28;20212;-53
2024/01/09 04:11:45;;;;;;;181.33;26.00;;;;;;;;;;5044091;28;20217;-52
2024/01/09 04:14:11;;;;;;;206.73;30.73;;;;;;;;;;5040517;28;20225;-53
2024/01/09 04:16:37;;;;;;;183.63;25.63;;;;;;;;;;5037889;28;20184;-53
2024/01/09 04:19:03;;;;;;;239.20;35.13;;;;;;;;;;5038531;28;20736;-53
2024/01/09 04:21:29;;;;;;;211.57;30.37;;;;;;;;;;5040074;28;20223;-53
2024/01/09 04:23:55;;;;;;;192.00;27.13;;;-9.50;99.90;;;;;;5041363;28;20223;-53
2024/01/09 04:26:21;;;;;;;212.70;30.10;;;;;;;;;;5018853;28;20223;-52
2024/01/09 04:28:48;;;;;;;185.57;26.17;;;;;;;;;;5042615;28;20187;-53
2024/01/09 04:31:14;;;;;;;233.83;33.17;;;;;;;;;;5040309;28;20238;-53
2024/01/09 04:33:41;;;;;;;216.03;30.93;;;;;;;;;;5039412;28;20211;-52
2024/01/09 04:36:07;;;;;;;230.23;36.07;;;;;;;;;;5038986;28;20219;-52
2024/01/09 04:38:33;;;;;;;222.53;31.03;;;;;;;;;;5038768;28;20264;-53
2024/01/09 04:40:59;;;;;;;257.13;37.63;;;;;;;;;;5035879;28;20203;-53
2024/01/09 04:43:25;;;;;;;216.33;29.57;;;;;;;;;;5041298;28;20668;-53
2024/01/09 04:45:51;;;;;;;184.23;25.73;;;;;;;;;;5038300;28;20637;-53
2024/01/09 04:48:17;;;;;;;249.60;35.93;;;;;;;;;;5037863;28;20657;-52
2024/01/09 04:50:43;;;;;;;235.73;33.77;;;;;;;;;;5043594;28;20215;-53
2024/01/09 04:53:09;;;;;;;230.37;33.13;;;;;;;;;;5040269;28;20225;-53
2024/01/09 04:55:35;;;;;;;199.70;28.40;;;;;;;;;;5040722;28;20917;-53
2024/01/09 04:58:01;;;;;;;182.23;25.30;;;;;;;;;;5045493;28;20215;-53
2024/01/09 05:00:27;;;;;;;211.90;29.97;;;;;;;;;;5036532;28;20220;-53
2024/01/09 05:02:53;;;;;;;197.80;27.67;;;;;;;;;;5036049;28;20215;-53
2024/01/09 05:05:19;;;;;;;246.43;36.47;;;;;;;;;;5041134;28;20227;-53
2024/01/09 05:07:46;;;;;;;186.47;26.50;;;;;;;;;;5035533;28;20200;-54
2024/01/09 05:10:12;;;;;;;214.50;30.13;;;;;;;;;;5039537;28;20247;-53
2024/01/09 05:12:38;;;;;;;176.73;26.60;;;;;;;;;;5043221;28;20284;-53
2024/01/09 05:15:04;;;;;;;188.00;26.33;;;;;;;;;;5035115;28;20227;-54
2024/01/09 05:17:30;;;;;;;230.40;34.03;;;;;;;;;;5039791;28;20670;-52
2024/01/09 05:19:56;;;;;;;169.50;23.77;;;;;;;;;;5040907;28;20207;-53
2024/01/09 05:22:22;;;;;;;219.27;31.43;;;;;;;;;;5033202;28;20211;-53
2024/01/09 05:24:48;;;;;;;184.77;26.73;;;;;;;;;;5036785;28;20659;-54
2024/01/09 05:27:14;;;;;;;200.23;29.50;;;;;;;;;;5038851;28;20233;-53
2024/01/09 05:29:40;;;;;;;188.90;27.33;;;;;;;;;;5044245;28;20226;-53
2024/01/09 05:32:07;;;;;;;196.37;28.80;;;;;;;;;;5036771;28;20593;-53
2024/01/09 05:34:33;;;;;;;195.77;28.53;;;;;;;;;;5040306;28;20590;-53
2024/01/09 05:36:59;;;;;;;185.30;26.83;;;;;;;;;;5035170;28;20265;-54
2024/01/09 05:39:25;;;;;;;224.50;32.27;;;;;;;;;;5037994;28;20602;-53
2024/01/09 05:41:51;;;;;;;158.80;23.17;;;;;;;;;;5038056;28;20478;-53
2024/01/09 05:44:17;;;;;;;226.63;34.37;;;;;;;;;;5033701;28;20784;-53
2024/01/09 05:46:43;;;;;;;230.37;33.60;;;;;;;;;;5038021;28;20558;-53
2024/01/09 05:49:09;;;;;;;155.83;22.63;;;;;;;;;;5036708;28;20227;-53
2024/01/09 05:51:35;;;;;;;221.57;31.77;;;;;;;;;;5037637;28;20226;-53
2024/01/09 05:54:01;;;;;;;202.30;28.83;;;;;;;;;;5035663;28;20226;-53
2024/01/09 05:56:27;;;;;;;223.40;33.03;;;;;;;;;;5033474;28;20223;-53
2024/01/09 05:58:53;;;;;;;186.40;26.77;;;;;;;;;;5035895;28;20550;-53
2024/01/09 06:01:19;;;;;;;244.13;35.97;;;;;;;;;;5034513;28;20222;-53
2024/01/09 06:03:45;;;;;;;191.40;28.27;;;;;;;;;;5030966;28;20710;-53
2024/01/09 06:06:11;;;;;;;213.60;31.07;;;;;;;;;;5035198;28;20230;-53
2024/01/09 06:08:37;;;;;;;177.37;25.13;;;;;;;;;;5037597;28;20215;-53
2024/01/09 06:11:04;;;;;;;175.37;24.53;;;;;;;;;;5035865;28;20190;-53
2024/01/09 06:13:30;;;;;;;292.23;43.33;;;;;;;;;;5030654;28;20187;-53
2024/01/09 06:15:56;;;;;;;233.77;33.37;;;;;;;;;;5034555;28;20215;-53
2024/01/09 06:18:22;;;;;;;214.27;31.07;;;;;;;;;;5034879;28;20285;-53
2024/01/09 06:20:48;;;;;;;200.77;29.13;;;;;;;;;;5037582;28;20310;-54
2024/01/09 06:23:14;;;;;;;163.87;23.53;;;;;;;;;;5038055;28;20191;-52
2024/01/09 06:25:40;;;;;;;216.20;30.90;;;;;;;;;;5036856;28;20203;-54
2024/01/09 06:28:06;;;;;;;314.47;46.30;;;;;;;;;;5037116;28;20226;-52
2024/01/09 06:30:34;;;;;;;252.80;36.17;;;;;;;;;;5041026;28;21031;-53
2024/01/09 06:33:00;;;;;;;179.50;25.87;;;;;;;;;;5021479;28;20215;-52
2024/01/09 06:35:26;;;;;;;459.20;75.93;;;;;;;;;;5029066;28;20520;-53
2024/01/09 06:37:52;;;;;;;194.73;27.70;;;;;;;;;;5038933;28;20187;-53
2024/01/09 06:40:20;;;;;;;244.30;35.40;;;;;;;;;;5038217;28;20211;-53
2024/01/09 06:42:49;;;;;;;174.03;24.47;;;;;;;;;;5042157;28;20280;-53
2024/01/09 06:45:15;;;;;;;269.17;40.27;;;;;;;;;;5035243;28;20326;-53
2024/01/09 06:47:44;;;;;;;186.37;26.67;;;;;;;;;;5043258;28;20208;-53
2024/01/09 06:50:10;;;;;;;171.83;24.27;;;;;;;;;;5040927;28;20184;-53
2024/01/09 06:52:38;;;;;;;230.83;33.77;;;;;;;;;;5039313;28;20179;-53
2024/01/09 06:55:04;;;;;;;157.90;22.47;;;;;;;;;;5047342;28;20261;-53
2024/01/09 06:57:30;;;;;;;256.77;38.37;;;;;;;;;;5037703;28;20249;-53
2024/01/09 06:59:57;;;;;;;184.97;25.73;;;;;;;;;;5043822;28;20278;-53
2024/01/09 07:02:23;;;;;;;262.67;41.20;;;;;;;;;;5039964;28;20219;-54
2024/01/09 07:04:49;;;;;;;163.57;23.13;;;;;;;;;;5034728;28;20203;-53
2024/01/09 07:07:15;;;;;;;189.63;27.03;;;;;;;;;;5034230;28;20857;-54
2024/01/09 07:09:41;;;;;;;237.87;34.30;;;;;;;;;;5035648;28;20537;-54
2024/01/09 07:12:09;;;;;;;162.33;23.00;;;;;;;;;;5037866;28;20310;-54
2024/01/09 07:14:36;;;;;;;284.83;42.53;;;;;;;;;;5038003;28;20752;-54
2024/01/09 07:17:03;;;;;;;183.80;26.60;;;;;;;;;;5027904;28;20538;-52
2024/01/09 07:19:29;;;;;;;275.20;40.53;;;;;;;;;;5039421;28;20187;-52
2024/01/09 07:21:55;;;;;;;213.20;31.73;;;;;;;;;;5041591;28;20559;-53
2024/01/09 07:24:21;;;;;;;208.43;30.70;;;;;;;;;;5035231;28;20708;-53
2024/01/09 07:26:47;;;;;;;166.23;23.53;;;;;;;;;;5045142;28;20212;-53
2024/01/09 07:29:16;;;;;;;171.57;24.67;;;;;;;;;;5038834;28;20187;-53
2024/01/09 07:31:43;;;;;;;199.87;28.70;;;;;;;;;;5041429;28;20600;-53
2024/01/09 07:34:09;;;;;;;140.67;20.63;;;;;;;;;;5048672;28;20227;-53
2024/01/09 07:36:35;;;;;;;169.00;24.17;;;;;;;;;;5046193;28;20226;-54
2024/01/09 07:39:01;;;;;;;185.10;26.87;;;;;;;;;;5045048;28;20207;-53
2024/01/09 07:41:27;;;;;;;229.37;33.23;;;;;;;;;;5037187;28;20227;-52
2024/01/09 07:43:53;;;;;;;188.33;27.10;;;;;;;;;;5029606;28;20348;-53
2024/01/09 07:46:19;;;;;;;208.13;31.37;;;;;;;;;;5045270;28;20314;-53
2024/01/09 07:48:45;;;;;;;236.87;35.13;;;;;;;;;;5042834;28;20222;-53
2024/01/09 07:51:11;;;;;;;181.73;26.20;;;;;;;;;;5043653;28;20262;-53
2024/01/09 07:53:37;;;;;;;176.10;25.03;;;;;;;;;;5040191;28;20214;-54
2024/01/09 07:56:03;;;;;;;200.63;29.10;;;;;;;;;;5039589;28;20675;-53
2024/01/09 07:58:29;;;;;;;194.77;27.43;;;;;;;;;;5037285;28;20215;-53
2024/01/09 08:00:55;;;;;;;225.97;32.40;;;;;;;;;;5025304;28;20716;-53
2024/01/09 08:03:21;;;;;;;201.80;29.37;;;;;;;;;;5042325;28;20574;-53
2024/01/09 08:05:47;;;;;;;174.67;24.87;;;;;;;;;;5046627;28;20238;-53
2024/01/09 08:08:13;;;;;;;184.13;26.33;;;;;;;;;;5047690;28;20271;-54
2024/01/09 08:10:39;;;;;;;207.40;29.47;;;;;;;;;;5042048;28;20258;-54
2024/01/09 08:13:05;;;;;;;150.07;21.87;;;;;;;;;;5041102;28;20216;-54
2024/01/09 08:15:31;;;;;;;260.77;38.83;;;;;;;;;;5043123;28;21190;-54
2024/01/09 08:17:58;;;;;;;178.93;25.97;;;;;;;;;;5049287;28;20510;-53
2024/01/09 08:20:24;;;;;;;451.30;78.20;;;;;;;;;;5038360;28;20226;-53
2024/01/09 08:22:51;;;;;;;171.10;24.93;;;;;;;;;;5048627;28;20199;-53
2024/01/09 08:25:17;;;;;;;235.73;36.67;;;;;;;;;;5049172;28;20216;-53
2024/01/09 08:27:42;;;;;;;166.03;23.73;;;-8.90;99.90;;;;;;5048865;28;20298;-53
2024/01/09 08:30:10;;;;;;;209.97;30.67;;;;;;;;;;5042130;28;20730;-54
2024/01/09 08:32:37;;;;;;;201.87;29.00;;;;;;;;;;5048664;28;20243;-53
2024/01/09 08:35:03;;;;;;;190.43;27.90;;;-8.80;99.90;;;;;;5046085;28;20211;-53
2024/01/09 08:37:29;;;;;;;210.90;31.50;;;;;;;;;;5047829;28;20181;-53
2024/01/09 08:39:55;;;;;;;199.67;28.63;;;;;;;;;;5050353;28;20630;-53
2024/01/09 08:42:21;;;;;;;205.67;29.70;;;;;;;;;;5046442;28;20242;-53
2024/01/09 08:44:47;;;;;;;192.60;27.27;;;;;;;;;;5048211;28;20227;-52
2024/01/09 08:47:13;;;;;;;196.10;27.70;;;;;;;;;;5051085;28;20191;-53
2024/01/09 08:49:39;;;;;;;234.60;34.40;;;;;;;;;;5045256;28;20282;-54
2024/01/09 08:52:05;;;;;;;180.20;25.83;;;;;;;;;;5045853;28;20325;-53
2024/01/09 08:54:31;;;;;;;265.07;39.47;;;;;;;;;;5042902;28;20254;-53
2024/01/09 08:56:57;;;;;;;246.43;36.13;;;;;;;;;;5043593;28;20211;-53
2024/01/09 08:59:23;;;;;;;278.53;43.67;;;;;;;;;;5031216;28;20249;-54
2024/01/09 09:01:49;;;;;;;257.00;37.47;;;;;;;;;;5032265;28;20194;-53
2024/01/09 09:04:15;;;;;;;261.53;38.17;;;;;;;;;;5027013;28;20232;-55
2024/01/09 09:06:41;;;;;;;204.40;29.00;;;;;;;;;;5034480;28;20371;-53
2024/01/09 09:09:09;;;;;;;181.47;27.03;;;;;;;;;;5043110;28;20261;-55
2024/01/09 09:11:35;;;;;;;198.43;29.63;;;;;;;;;;5035028;28;20241;-53
2024/01/09 09:14:01;;;;;;;208.70;29.57;;;;;;;;;;5040126;28;20172;-54
2024/01/09 09:16:29;;;;;;;225.03;32.83;;;;;;;;;;5033147;28;20274;-53
2024/01/09 09:18:55;;;;;;;159.23;21.83;;;;;;;;;;5045009;28;20211;-53
2024/01/09 09:21:21;;;;;;;254.57;35.30;;;;;;;;;;5037509;28;20215;-54
2024/01/09 09:23:47;;;;;;;213.60;29.97;;;;;;;;;;5041801;28;20258;-53
2024/01/09 09:26:13;;;;;;;211.23;29.70;;;;;;;;;;5047973;28;20314;-52
2024/01/09 09:28:42;;;;;;;282.73;41.33;;;;;;;;;;5043740;28;20188;-54
2024/01/09 09:31:09;;;;;;;157.87;23.23;;;;;;;;;;5054947;28;20286;-53
2024/01/09 09:33:35;;;;;;;254.80;35.83;;;;;;;;;;5039953;28;20211;-53
2024/01/09 09:36:07;;;;;;;257.23;36.23;;;;;;;;;;5033489;28;20237;-53
2024/01/09 09:38:34;;;;;;;262.90;37.17;;;;;;;;;;5032044;28;20694;-53
2024/01/09 09:41:04;;;;;;;191.23;26.77;;;;;;;;;;5040412;28;20643;-53
2024/01/09 09:43:33;;;;;;;295.53;44.17;;;;;;;;;;5030376;28;20309;-52
2024/01/09 09:46:01;;;;;;;203.73;28.97;;;;;;;;;;5028110;28;20290;-51
2024/01/09 09:48:28;;;;;;;223.30;34.63;;;;;;;;;;5030282;28;20254;-53
2024/01/09 09:50:55;;;;;;;200.03;30.27;;;;;;;;;;5034761;28;20211;-51
2024/01/09 09:53:22;;;;;;;247.63;36.13;;;;;;;;;;5034502;28;20335;-51
2024/01/09 09:55:48;;;;;;;248.63;36.87;;;;;;;;;;5031330;28;21180;-51
2024/01/09 09:58:14;;;;;;;212.40;31.60;;;;;;;;;;5030737;28;20631;-50
2024/01/09 10:00:41;;;;;;;263.10;38.43;;;;;;;;;;5004659;28;20318;-50
2024/01/09 10:03:08;;;;;;;222.53;31.90;;;;;;;;;;5031555;28;20592;-50
2024/01/09 10:05:38;;;;;;;215.00;31.43;;;;;;;;;;5028940;28;20247;-51
2024/01/09 10:08:06;;;;;;;222.47;32.27;;;;;;;;;;5025006;28;20233;-51
2024/01/09 10:10:32;;;;;;;257.67;38.63;;;;;;;;;;5027910;28;20191;-51
2024/01/09 10:12:58;;;;;;;200.63;28.67;;;;;;;;;;5029227;28;20218;-53
2024/01/09 10:15:24;;;;;;;280.00;42.37;;;;;;;;;;5020564;28;20223;-52
2024/01/09 10:17:52;;;;;;;169.87;24.00;;;;;;;;;;5017744;28;20220;-52
2024/01/09 10:20:18;;;;;;;290.73;43.53;;;;;;;;;;5022936;28;20215;-52
2024/01/09 10:22:44;;;;;;;167.27;24.57;;;;;;;;;;5027657;28;20249;-52
2024/01/09 10:25:11;;;;;;;184.00;26.43;;;;;;;;;;5027924;28;20227;-51
2024/01/09 10:27:38;;;;;;;241.87;35.23;;;;;;;;;;5025908;28;20310;-51
2024/01/09 10:30:05;;;;;;;197.90;28.97;;;;;;;;;;5027519;28;20221;-51
2024/01/09 10:32:33;;;;;;;216.37;31.50;;;;;;;;;;5030952;28;20211;-51
2024/01/09 10:34:59;;;;;;;188.87;26.83;;;;;;;;;;5037292;28;20290;-51
2024/01/09 10:37:25;;;;;;;193.50;27.47;;;;;;;;;;5037059;28;20539;-52
2024/01/09 10:39:52;;;;;;;229.67;33.63;;;;;;;;;;5032130;28;20682;-50
2024/01/09 10:42:18;;;;;;;220.20;32.37;;;;;;;;;;5035633;28;20211;-51
2024/01/09 10:44:47;;;;;;;299.77;45.93;;;;;;;;;;5027921;28;20234;-51
2024/01/09 10:47:14;;;;;;;181.77;26.40;;;;;;;;;;5027332;28;20222;-52
2024/01/09 10:49:40;;;;;;;266.10;39.90;;;;;;;;;;5030580;28;20210;-53
2024/01/09 10:52:11;;;;;;;246.77;36.33;;;;;;;;;;5021488;28;20199;-53
2024/01/09 10:54:38;;;;;;;555.73;103.27;;;;;;;;;;5020751;28;20318;-53
2024/01/09 10:57:05;;;;;;;332.63;51.73;;;;;;;;;;5018979;28;20634;-53
2024/01/09 10:59:31;;;;;;;241.30;37.03;;;;;;;;;;5023074;28;21609;-52
2024/01/09 11:01:57;;;;;;;199.33;29.17;;;;;;;;;;5031875;28;20191;-53
2024/01/09 11:04:24;;;;;;;229.43;34.97;;;;;;;;;;5030883;28;20214;-53
2024/01/09 11:06:51;;;;;;;167.70;24.37;;;;;;;;;;5031479;28;20272;-53
2024/01/09 11:09:19;;;;;;;262.77;41.30;;;;;;;;;;5024932;28;20222;-50
2024/01/09 11:11:46;;;;;;;253.47;38.47;;;;;;;;;;5022878;28;20227;-51
2024/01/09 11:14:13;;;;;;;192.53;28.63;;;;;;;;;;5032137;28;20665;-51
2024/01/09 11:16:42;;;;;;;179.23;26.97;;;;;;;;;;5035170;28;20356;-52
2024/01/09 11:19:09;;;;;;;273.63;43.83;;;;;;;;;;5026266;28;20203;-52
2024/01/09 11:21:36;;;;;;;208.50;32.13;;;;;;;;;;5031291;28;20575;-51
2024/01/09 11:24:05;;;;;;;310.43;51.03;;;;;;;;;;5030091;28;20220;-52
2024/01/09 11:26:37;;;;;;;233.67;35.70;;;;;;;;;;5025864;28;20242;-52
2024/01/09 11:29:03;;;;;;;254.60;38.97;;;;;;;;;;5030893;28;20191;-53
2024/01/09 11:31:30;;;;;;;206.87;30.90;;;;;;;;;;5030709;28;20187;-52
2024/01/09 11:33:56;;;;;;;164.07;24.33;;;;;;;;;;5037053;28;20211;-52
2024/01/09 11:36:30;;;;;;;202.30;31.73;;;;;;;;;;5034742;28;20211;-52
2024/01/09 11:38:56;;;;;;;231.20;35.27;;;;;;;;;;5024798;28;20219;-52
2024/01/09 11:41:25;;;;;;;201.93;32.20;;;;;;;;;;5036491;28;20548;-51
2024/01/09 11:44:01;;;;;;;196.33;30.57;;;;;;;;;;5035000;28;20183;-52
2024/01/09 11:46:28;;;;;;;203.57;32.33;;;;;;;;;;5033049;28;20223;-52
2024/01/09 11:48:54;;;;;;;263.37;43.00;;;;;;;;;;5032556;28;20214;-51
2024/01/09 11:51:24;;;;;;;184.90;28.77;;;;;;;;;;5032448;28;20311;-52
2024/01/09 11:53:50;;;;;;;258.27;43.50;;;;;;;;;;5027193;28;20208;-51
2024/01/09 11:56:17;;;;;;;176.60;28.87;;;;;;;;;;5035498;28;20675;-52
2024/01/09 11:58:44;;;;;;;217.60;39.07;;;;;;;;;;5036575;28;20543;-52
2024/01/09 12:01:10;;;;;;;197.77;33.77;;;;;;;;;;5032143;28;20212;-51
2024/01/09 12:03:37;;;;;;;228.60;41.47;;;;;;;;;;5032746;28;20314;-52
2024/01/09 12:06:06;;;;;;;182.43;33.80;;;;;;;;;;5036526;28;20329;-52
2024/01/09 12:08:35;;;;;;;247.37;49.47;;;;;;;;;;5023329;28;20223;-52
2024/01/09 12:11:02;;;;;;;221.77;41.37;;;;;;;;;;5029135;28;20618;-52
2024/01/09 12:13:28;;;;;;;233.07;43.03;;;;;;;;;;5032378;28;20277;-52
2024/01/09 12:15:54;;;;;;;192.83;35.87;;;;;;;;;;5031163;28;20216;-52
2024/01/09 12:18:20;;;;;;;451.83;103.87;;;;;;;;;;5022139;28;20703;-52
2024/01/09 12:20:46;;;;;;;293.10;57.20;;;;;;;;;;5028899;28;20211;-51
2024/01/09 12:23:12;;;;;;;187.67;34.47;;;;;;;;;;5033483;28;20245;-52
2024/01/09 12:25:39;;;;;;;286.13;59.03;;;;;;;;;;5022458;28;20261;-51
2024/01/09 12:28:05;;;;;;;203.43;36.57;;;;;;;;;;5033709;28;20670;-52
2024/01/09 12:30:32;;;;;;;211.13;39.73;;;;;;;;;;5019431;28;20706;-52
2024/01/09 12:32:58;;;;;;;177.33;30.57;;;;;;;;;;5035934;28;20215;-52
2024/01/09 12:35:24;;;;;;;251.80;50.57;;;;;;;;;;5031004;28;20294;-52
2024/01/09 12:37:51;;;;;;;174.37;31.47;;;;;;;;;;5027736;28;20871;-53
2024/01/09 12:40:18;;;;;;;190.73;34.60;;;;;;;;;;5017646;28;20220;-52
2024/01/09 12:43:04;;;;;;;177.87;32.83;;;-0.60;1.00;;;;;;5029284;28;20225;-53
2024/01/09 12:45:30;;;;;;;358.23;75.13;;;0.40;1.00;;;;;;5018255;28;20230;-52
2024/01/09 12:47:56;;;;;;;183.23;32.97;;;;;;;;;;5032611;28;20242;-53
2024/01/09 12:50:28;;;;;;;318.07;64.97;;;2.00;30.50;;;;;;5019822;28;20337;-50
2024/01/09 12:52:54;;;;;;;213.63;41.80;;;;;;;;;;5031677;28;20299;-51
2024/01/09 12:55:20;;;;;;;211.00;45.13;;;;;;;;;;5029476;28;20284;-52
2024/01/09 12:57:46;;;;;;;237.07;51.97;;;;;;;;;;5025982;28;20310;-52
2024/01/09 13:00:12;;;;;;;198.47;44.43;;;;;;;;;;5024003;28;20306;-52
2024/01/09 13:02:38;;;;;;;285.23;66.53;;;;;;;;;;5020029;28;20227;-53
2024/01/09 13:05:05;;;;;;;177.20;42.17;;;;;;;;;;5023669;28;20203;-52
2024/01/09 13:07:31;;;;;;;184.53;41.13;;;;;;;;;;5016157;28;20260;-52
2024/01/09 13:09:57;;;;;;;249.90;61.17;;;;;;;;;;5027259;28;20330;-52
2024/01/09 13:12:23;;;;;;;340.63;88.20;;;;;;;;;;5023385;28;20220;-52
2024/01/09 13:14:49;;;;;;;314.13;83.30;;;;;;;;;;5025218;28;20713;-53
2024/01/09 13:17:15;;;;;;;239.53;68.30;;;;;;;;;;5023114;28;20192;-52
2024/01/09 13:19:41;;;;;;;357.93;110.00;;;;;;;;;;5024374;28;20188;-52
2024/01/09 13:22:07;;;;;;;224.30;77.67;;;;;;;;;;5024279;28;20725;-52
2024/01/09 13:24:33;;;;;;;192.80;76.13;;;;;;;;;;5031923;28;20230;-53
2024/01/09 13:26:59;;;;;;;219.70;82.03;;;;;;;;;;5023609;28;20250;-53
2024/01/09 13:29:27;;;;;;;320.80;115.37;;;;;;;;;;5034344;28;20296;-53
2024/01/09 13:31:53;;;;;;;470.43;192.03;;;;;;;;;;5024723;28;21558;-52
2024/01/09 13:34:19;;;;;;;494.00;198.50;;;;;;;;;;5021958;28;20212;-53
2024/01/09 13:36:45;;;;;;;490.00;197.30;;;;;;;;;;5028838;28;20208;-53
2024/01/09 13:39:14;;;;;;;488.93;200.53;;;;;;;;;;5009231;28;20211;-52
2024/01/09 13:41:40;;;;;;;460.57;185.67;;;;;;;;;;5017815;28;20268;-53
2024/01/09 13:44:06;;;;;;;435.67;174.73;;;;;;;;;;5011476;28;20246;-53
2024/01/09 13:46:33;;;;;;;447.40;173.53;;;;;;;;;;5024473;28;20280;-53
2024/01/09 13:48:59;;;;;;;489.07;192.27;;;;;;;;;;5021462;28;20212;-52
2024/01/09 13:51:25;;;;;;;610.00;245.07;;;;;;;;;;5010786;28;20806;-52
2024/01/09 13:53:52;;;;;;;469.00;187.20;;;;;;;;;;5013953;28;20314;-52
2024/01/09 13:56:19;;;;;;;392.80;155.13;;;;;;;;;;5024730;28;20273;-51
2024/01/09 13:58:44;;;;;;;438.60;166.47;;;;;;;;;;5024617;28;21427;-52
2024/01/09 14:01:10;;;;;;;376.83;143.57;;;;;;;;;;5013621;28;20239;-51
2024/01/09 14:03:36;;;;;;;297.57;122.03;;;;;;;;;;5017498;28;20828;-52
2024/01/09 14:06:04;;;;;;;374.93;132.87;;;;;;;;;;5022495;28;20237;-52
2024/01/09 14:08:33;;;;;;;276.30;98.70;;;;;;;;;;5014657;28;20222;-52
2024/01/09 14:11:00;;;;;;;318.37;108.97;;;;;;;;;;4989373;28;20187;-51
2024/01/09 14:13:26;;;;;;;242.33;80.07;;;;;;;;;;5022591;28;20673;-52
2024/01/09 14:15:54;;;;;;;260.00;69.80;;;;;;;;;;5021882;28;20225;-52
2024/01/09 14:18:20;;;;;;;259.83;54.53;;;;;;;;;;5021516;28;20260;-52
2024/01/09 14:20:46;;;;;;;411.53;93.73;;;;;;;;;;5013663;28;20207;-51
2024/01/09 14:23:12;;;;;;;295.63;56.03;;;;;;;;;;5015262;28;20269;-52
2024/01/09 14:25:38;;;;;;;428.93;92.30;;;;;;;;;;5010439;28;20215;-52
2024/01/09 14:28:04;;;;;;;222.00;44.93;;;;;;;;;;5018025;28;20212;-52
2024/01/09 14:30:30;;;;;;;225.07;41.57;;;;;;;;;;5014467;28;22230;-52
2024/01/09 14:32:56;;;;;;;283.67;51.70;;;;;;;;;;5021345;28;20273;-52
2024/01/09 14:35:22;;;;;;;271.43;49.60;;;;;;;;;;5025846;28;20223;-52
2024/01/09 14:37:50;;;;;;;290.53;52.43;;;;;;;;;;5024054;28;20190;-51
2024/01/09 14:40:16;;;;;;;244.70;41.87;;;;;;;;;;5036380;28;20219;-51
2024/01/09 14:42:42;;;;;;;293.47;50.70;;;;;;;;;;5021015;28;20224;-51
2024/01/09 14:45:10;;;;;;;251.17;43.63;;;;;;;;;;5022188;28;20281;-51
2024/01/09 14:47:36;;;;;;;265.17;45.33;;;;;;;;;;5020960;28;20219;-52
2024/01/09 14:50:03;;;;;;;264.23;54.07;;;;;;;;;;5019456;28;20679;-51
2024/01/09 14:52:29;;;;;;;273.17;50.67;;;;;;;;;;5022386;28;20266;-52
2024/01/09 14:54:55;;;;;;;319.33;61.73;;;;;;;;;;5018630;28;20223;-53
2024/01/09 14:57:21;;;;;;;332.20;60.83;;;;;;;;;;5015738;28;20230;-52
2024/01/09 14:59:47;;;;;;;240.00;41.73;;;;;;;;;;5018118;28;20219;-53
2024/01/09 15:02:13;;;;;;;248.07;42.07;;;;;;;;;;5032526;28;20188;-52
2024/01/09 15:04:44;;;;;;;265.97;50.37;;;;;;;;;;5011389;28;20234;-52
2024/01/09 15:07:10;;;;;;;201.87;36.17;;;;;;;;;;5024871;28;20666;-53
2024/01/09 15:09:36;;;;;;;224.93;40.33;;;;;;;;;;5026856;28;20576;-52
2024/01/09 15:12:02;;;;;;;188.00;32.43;;;;;;;;;;5012983;28;20280;-53